createdAt,value
2019-03-04T00:03:41.878Z,2.83
2019-03-04T00:08:44.580Z,2.70
2019-03-04T00:13:47.276Z,2.63
2019-03-04T00:18:49.984Z,2.57
2019-03-04T00:23:52.677Z,2.47
2019-03-04T00:28:55.395Z,2.40
2019-03-04T00:33:58.240Z,2.17
2019-03-04T00:39:00.973Z,1.80
2019-03-04T00:44:03.693Z,2.03
2019-03-04T00:49:06.387Z,1.80
2019-03-04T00:54:09.083Z,2.27
2019-03-04T00:59:11.784Z,2.10
2019-03-04T01:04:14.498Z,1.90
2019-03-04T01:09:17.433Z,2.60
2019-03-04T01:14:20.160Z,1.83
2019-03-04T01:19:22.897Z,1.70
2019-03-04T01:24:25.622Z,2.00
2019-03-04T01:29:28.315Z,2.03
2019-03-04T01:34:31.006Z,1.93
2019-03-04T01:39:33.696Z,1.83
2019-03-04T01:44:36.398Z,2.10
2019-03-04T01:49:39.120Z,1.97
2019-03-04T01:54:41.841Z,2.53
2019-03-04T01:59:44.552Z,1.80
2019-03-04T02:04:47.237Z,1.70
2019-03-04T02:09:49.956Z,2.13
2019-03-04T02:14:52.713Z,2.00
2019-03-04T02:19:55.412Z,2.50
2019-03-04T02:24:58.134Z,1.80
2019-03-04T02:30:00.839Z,1.80
2019-03-04T02:35:03.856Z,1.63
2019-03-04T02:40:07.372Z,2.30
2019-03-04T02:45:13.401Z,1.60
2019-03-04T02:50:16.139Z,1.70
2019-03-04T02:55:18.852Z,1.50
2019-03-04T03:00:21.609Z,1.80
2019-03-04T03:05:24.318Z,1.80
2019-03-04T03:10:27.022Z,1.57
2019-03-04T03:15:29.722Z,2.20
2019-03-04T03:20:32.438Z,1.57
2019-03-04T03:25:35.132Z,1.30
2019-03-04T03:30:37.854Z,1.63
2019-03-04T03:35:40.582Z,1.50
2019-03-04T03:40:43.316Z,1.30
2019-03-04T03:45:46.029Z,1.20
2019-03-04T03:50:48.750Z,1.57
2019-03-04T03:55:51.588Z,1.47
2019-03-04T04:00:54.372Z,1.37
2019-03-04T04:05:57.138Z,1.30
2019-03-04T04:10:59.931Z,1.70
2019-03-04T04:16:02.641Z,1.30
2019-03-04T04:21:05.349Z,0.97
2019-03-04T04:26:20.406Z,1.93
2019-03-04T04:31:23.120Z,1.20
2019-03-04T04:36:25.822Z,1.00
2019-03-04T04:41:28.513Z,1.00
2019-03-04T04:46:54.242Z,1.43
2019-03-04T04:51:56.949Z,1.27
2019-03-04T04:56:59.653Z,1.03
2019-03-04T05:02:02.374Z,0.87
2019-03-04T05:07:05.069Z,1.00
2019-03-04T05:12:07.767Z,1.20
2019-03-04T05:17:10.469Z,1.27
2019-03-04T05:22:13.192Z,1.00
2019-03-04T05:27:15.914Z,1.20
2019-03-04T05:32:18.610Z,1.10
2019-03-04T05:37:21.319Z,1.10
2019-03-04T05:42:24.632Z,0.97
2019-03-04T05:47:27.446Z,1.10
2019-03-04T05:52:30.168Z,1.20
2019-03-04T05:57:32.851Z,1.30
2019-03-04T06:02:35.548Z,1.10
2019-03-04T06:07:41.882Z,0.93
2019-03-04T06:12:44.587Z,0.97
2019-03-04T06:17:47.334Z,1.00
2019-03-04T06:22:50.051Z,1.33
2019-03-04T06:27:52.764Z,1.20
2019-03-04T06:32:55.477Z,0.90
2019-03-04T06:37:58.709Z,0.90
2019-03-04T06:43:01.549Z,1.00
2019-03-04T06:48:09.174Z,0.80
2019-03-04T06:53:11.923Z,0.80
2019-03-04T06:58:14.631Z,1.00
2019-03-04T07:03:53.986Z,1.07
2019-03-04T07:09:15.701Z,0.90
2019-03-04T07:14:18.428Z,1.03
2019-03-04T07:19:32.852Z,0.90
2019-03-04T07:24:35.565Z,1.17
2019-03-04T07:29:39.192Z,1.00
2019-03-04T07:34:41.894Z,0.90
2019-03-04T07:39:44.618Z,1.27
2019-03-04T07:44:47.822Z,1.83
2019-03-04T07:49:50.717Z,0.60
2019-03-04T07:54:53.403Z,0.53
2019-03-04T07:59:57.017Z,0.60
2019-03-04T08:04:59.790Z,0.60
2019-03-04T08:11:18.619Z,0.70
2019-03-04T08:16:21.353Z,0.60
2019-03-04T08:21:24.106Z,0.60
2019-03-04T08:26:26.816Z,0.60
2019-03-04T08:31:29.748Z,0.40
2019-03-04T08:36:32.468Z,0.50
2019-03-04T08:41:35.190Z,0.70
2019-03-04T08:46:37.908Z,0.70
2019-03-04T08:51:40.630Z,0.80
2019-03-04T08:56:43.603Z,0.60
2019-03-04T09:01:46.305Z,0.60
2019-03-04T09:06:49.046Z,0.50
2019-03-04T09:11:51.903Z,0.80
2019-03-04T09:16:54.598Z,0.60
2019-03-04T09:21:57.305Z,0.70
2019-03-04T09:26:59.992Z,1.30
2019-03-04T09:32:02.711Z,0.70
2019-03-04T09:37:05.436Z,1.00
2019-03-04T09:42:18.204Z,1.00
2019-03-04T09:47:20.897Z,1.40
2019-03-04T09:52:23.600Z,1.60
2019-03-04T09:57:26.299Z,1.57
2019-03-04T10:02:40.506Z,1.23
2019-03-04T10:08:32.414Z,1.43
2019-03-04T10:13:29.481Z,1.30
2019-03-04T10:24:32.784Z,1.50
2019-03-04T10:30:14.796Z,1.63
2019-03-04T10:36:19.138Z,1.73
2019-03-04T10:42:17.952Z,1.90
2019-03-04T10:47:20.675Z,2.17
2019-03-04T10:52:23.415Z,1.30
2019-03-04T10:57:26.102Z,1.40
2019-03-04T11:02:28.799Z,1.57
2019-03-04T11:07:31.509Z,0.97
2019-03-04T11:12:34.219Z,1.07
2019-03-04T11:17:37.038Z,0.80
2019-03-04T11:22:39.930Z,0.70
2019-03-04T11:27:42.721Z,1.00
2019-03-04T11:32:45.422Z,0.60
2019-03-04T11:37:48.139Z,0.80
2019-03-04T11:42:51.159Z,1.07
2019-03-04T11:47:54.262Z,0.87
2019-03-04T11:52:57.765Z,0.70
2019-03-04T11:58:01.122Z,0.80
2019-03-04T12:03:03.980Z,1.03
2019-03-04T12:08:10.154Z,1.03
2019-03-04T12:13:12.901Z,0.70
2019-03-04T12:18:15.832Z,0.50
2019-03-04T12:23:21.148Z,0.50
2019-03-04T12:28:23.977Z,0.40
2019-03-04T12:33:27.301Z,0.50
2019-03-04T12:38:30.762Z,0.40
2019-03-04T12:43:34.203Z,0.70
2019-03-04T12:48:37.560Z,0.50
2019-03-04T12:53:40.999Z,0.60
2019-03-04T12:58:43.801Z,0.70
2019-03-04T13:03:46.511Z,0.60
2019-03-04T13:08:49.212Z,0.60
2019-03-04T13:13:51.930Z,0.60
2019-03-04T13:18:54.639Z,0.80
2019-03-04T13:23:57.323Z,0.70
2019-03-04T13:29:00.023Z,0.87
2019-03-04T13:34:02.735Z,0.80
2019-03-04T13:39:07.189Z,0.83
2019-03-04T13:44:09.892Z,0.73
2019-03-04T13:49:12.580Z,1.00
2019-03-04T13:54:15.301Z,1.13
2019-03-04T13:59:17.997Z,1.30
2019-03-04T14:04:20.690Z,1.43
2019-03-04T14:09:23.405Z,1.40
2019-03-04T14:14:26.128Z,1.43
2019-03-04T14:19:28.848Z,1.80
2019-03-04T14:24:31.603Z,2.27
2019-03-04T14:29:34.355Z,1.50
2019-03-04T14:34:37.064Z,1.63
2019-03-04T14:39:39.920Z,1.63
2019-03-04T14:44:42.625Z,1.63
2019-03-04T14:49:45.360Z,1.90
2019-03-04T14:54:48.067Z,2.17
2019-03-04T14:59:50.794Z,1.97
2019-03-04T15:04:53.489Z,1.90
2019-03-04T15:09:56.191Z,1.87
2019-03-04T15:14:58.907Z,1.63
2019-03-04T15:20:08.726Z,1.43
2019-03-04T15:25:09.713Z,1.27
2019-03-04T15:30:12.426Z,1.60
2019-03-04T15:35:15.169Z,1.03
2019-03-04T15:40:17.888Z,1.83
2019-03-04T15:45:21.196Z,1.73
2019-03-04T15:50:24.032Z,1.27
2019-03-04T15:55:26.722Z,1.40
2019-03-04T16:00:31.537Z,1.40
2019-03-04T16:05:34.382Z,1.50
2019-03-04T16:10:37.131Z,1.57
2019-03-04T16:15:42.035Z,2.00
2019-03-04T16:20:44.751Z,1.10
2019-03-04T16:25:47.552Z,1.80
2019-03-04T16:30:50.829Z,1.20
2019-03-04T16:35:53.547Z,1.87
2019-03-04T16:40:56.269Z,1.50
2019-03-04T16:45:58.996Z,1.17
2019-03-04T16:51:01.722Z,1.03
2019-03-04T16:56:04.624Z,0.90
2019-03-04T17:01:07.607Z,1.30
2019-03-04T17:06:10.373Z,1.80
2019-03-04T17:11:13.239Z,1.20
2019-03-04T17:16:16.009Z,1.27
2019-03-04T17:21:18.739Z,0.90
2019-03-04T17:26:21.470Z,1.23
2019-03-04T17:31:24.470Z,1.30
2019-03-04T17:36:27.158Z,1.23
2019-03-04T17:41:29.867Z,1.40
2019-03-04T17:46:32.596Z,1.20
2019-03-04T17:51:35.305Z,1.43
2019-03-04T17:56:38.036Z,1.13
2019-03-04T18:01:40.745Z,1.67
2019-03-04T18:06:43.450Z,1.13
2019-03-04T18:11:46.158Z,1.53
2019-03-04T18:16:48.848Z,1.60
2019-03-04T18:21:51.590Z,1.47
2019-03-04T18:27:03.620Z,2.17
2019-03-04T18:32:43.428Z,2.20
2019-03-04T18:38:43.953Z,1.37
2019-03-04T18:44:05.751Z,1.80
2019-03-04T18:49:09.263Z,2.00
2019-03-04T18:54:20.958Z,2.17
2019-03-04T18:59:23.183Z,1.70
2019-03-04T19:04:25.935Z,1.77
2019-03-04T19:09:28.630Z,2.10
2019-03-04T19:14:31.332Z,2.40
2019-03-04T19:19:34.041Z,1.90
2019-03-04T19:24:36.728Z,2.03
2019-03-04T19:29:39.438Z,2.07
2019-03-04T19:34:42.138Z,2.23
2019-03-04T19:39:44.826Z,1.80
2019-03-04T19:44:47.535Z,2.10
2019-03-04T19:49:50.233Z,2.47
2019-03-04T19:54:52.930Z,1.90
2019-03-04T19:59:55.624Z,1.60
2019-03-04T20:04:58.321Z,1.77
2019-03-04T20:10:01.007Z,2.00
2019-03-04T20:15:10.262Z,2.13
2019-03-04T20:20:13.016Z,1.97
2019-03-04T20:25:16.143Z,2.00
2019-03-04T20:30:18.884Z,1.77
2019-03-04T20:35:21.706Z,1.70
2019-03-04T20:40:24.407Z,2.13
2019-03-04T20:45:27.458Z,2.33
2019-03-04T20:50:30.167Z,1.90
2019-03-04T20:55:32.910Z,1.83
2019-03-04T21:00:35.903Z,1.50
2019-03-04T21:05:38.691Z,1.40
2019-03-04T21:10:41.401Z,2.40
2019-03-04T21:15:44.098Z,1.90
2019-03-04T21:20:46.787Z,1.70
2019-03-04T21:26:07.619Z,1.77
2019-03-04T21:31:53.330Z,1.40
2019-03-04T21:37:04.466Z,1.33
2019-03-04T21:42:34.627Z,1.70
2019-03-04T21:47:44.356Z,1.80
2019-03-04T21:53:20.658Z,1.10
2019-03-04T21:58:23.500Z,1.50
2019-03-04T22:03:30.745Z,1.33
2019-03-04T22:08:33.455Z,1.77
2019-03-04T22:13:36.160Z,1.43
2019-03-04T22:18:38.961Z,1.70
2019-03-04T22:23:41.696Z,1.27
2019-03-04T22:28:44.385Z,1.60
2019-03-04T22:33:47.081Z,1.40
2019-03-04T22:38:49.781Z,1.43
2019-03-04T22:43:52.475Z,1.23
2019-03-04T22:48:55.174Z,1.10
2019-03-04T22:53:57.865Z,1.47
2019-03-04T22:59:00.596Z,1.50
2019-03-04T23:04:12.627Z,1.70
2019-03-04T23:09:16.562Z,2.00
2019-03-04T23:14:24.998Z,1.97
2019-03-04T23:19:27.684Z,2.27
2019-03-04T23:24:30.419Z,2.57
2019-03-04T23:29:33.118Z,2.43
2019-03-04T23:34:35.830Z,2.80
2019-03-04T23:39:38.549Z,3.07
2019-03-04T23:44:41.244Z,3.40
2019-03-04T23:49:43.940Z,4.80
2019-03-04T23:54:46.638Z,4.77
2019-03-04T23:59:49.350Z,5.53
